aviador You're here:

PACM Decoded Metar

SCAMMON BAY in AK, USA
Report Time2017-11-18 13:46:00
UTC Time2017-11-18 13:57:19
Flight Rules ifr IFR
Wind090° at 10 kt
W.Decomp.*RWY 10: 9.3 kt HW 3.7 kt LCW
W.Rank090° ranks 27
Current wind is above 090° avg. (8.3)
Visibility9999 m
Phenomena:Light Snow
Clouds:Broken 009 Hf
Overcast 044 Hf
Expected CloudBase > 800 ft AGL from Temp-Dew spread
Ceiling900 ft
Temp-1°C (ISA -16)
Dew Point-3°C (86% RH)
AAT-7.0°C
QNH1019 hPa
Density Alt-2,083 ft
Elevation13 ft
Report Wrong Elevation
Raw Report
PACM 181346Z AUTO 09010KT 7SM -SN BKN009 OVC044 M01/M03 A3010 RMK
AO2 CIG 007V011 P0000 FZRANO=

Extra information for PACM:More info

Metar Taf Metar & Taf Last 4 Metars F.Rules Stats Wind Profile Meteogram Temp Stats Airport Information Weather charts Add Link Nearby VenuesMetar ALERT Operation Metar Decoded Social comments

AIRNAV info for PACM